Check out our new PWSWeather beta!
PWSweather.com
Personal Weather Stations
Station Observations
METEOC500
Santo Antonio, FunchalPT 2020

Santo AntonioFunchalPT 2020

Lat: 32.678227, Lon: -16.945054

Elevation: 1669.94751

Station Type: WH Series

High Low Average
Temperature 66.0°F18.9°C 55.9°F13.3°C 59.8°F15.4°C
Dew Point 58.5°F14.7°C 51.3°F10.7°C 54.6°F12.6°C
Winds 7.2 mph 11.6 kmh Calm Calm 4.0 mph W6.4 kmh W
Wind Gusts 12.5 mph20.1 kmh 2.5 mph4.0 kmh 8.0 mph12.9 kmh
Humidity 89% 72% 83%
Pressure 30.27 in1025.1 mb 30.19 in1022.4 mb -
Precipitation 0.00 in0.0 mm - -
Hour Temp Dew Point Humidity Winds Wind Gusts Pressure Precip Precip Rate Daily Precip Total
12:06 AM 57.4°F14.1°C 53.6°F12.0°C 87% 2.9 mph NNW4.7 kmh NNW 7.6 mph12.2 kmh 30.19 in1022.4 mb 0.00 in0.0 mm 0.00 in0.0 mm 0.00 in0.0 mm
12:21 AM 57.2°F14.0°C 53.1°F11.7°C 86% 3.8 mph NNW6.1 kmh NNW 7.6 mph12.2 kmh 30.19 in1022.4 mb 0.00 in0.0 mm 0.00 in0.0 mm 0.00 in0.0 mm
12:36 AM 57.0°F13.9°C 53.2°F11.8°C 87% 3.1 mph NW5.0 kmh NW 7.6 mph12.2 kmh 30.19 in1022.4 mb 0.00 in0.0 mm 0.00 in0.0 mm 0.00 in0.0 mm
12:52 AM 57.0°F13.9°C 52.5°F11.4°C 85% 3.4 mph NW5.5 kmh NW 10.1 mph16.3 kmh 30.19 in1022.4 mb 0.00 in0.0 mm 0.00 in0.0 mm 0.00 in0.0 mm
01:07 AM 57.2°F14.0°C 52.7°F11.5°C 85% 4.7 mph N7.6 kmh N 7.6 mph12.2 kmh 30.19 in1022.4 mb 0.00 in0.0 mm 0.00 in0.0 mm 0.00 in0.0 mm
01:22 AM 57.2°F14.0°C 52.7°F11.5°C 85% 6.3 mph NNW10.1 kmh NNW 7.6 mph12.2 kmh 30.19 in1022.4 mb 0.00 in0.0 mm 0.00 in0.0 mm 0.00 in0.0 mm
01:37 AM 57.4°F14.1°C 52.5°F11.4°C 84% 4.5 mph NNW7.2 kmh NNW 7.6 mph12.2 kmh 30.19 in1022.4 mb 0.00 in0.0 mm 0.00 in0.0 mm 0.00 in0.0 mm
01:52 AM 57.4°F14.1°C 52.5°F11.4°C 84% 7.2 mph NNW11.6 kmh NNW 10.1 mph16.3 kmh 30.19 in1022.4 mb 0.00 in0.0 mm 0.00 in0.0 mm 0.00 in0.0 mm
02:08 AM 57.2°F14.0°C 52.7°F11.5°C 85% 4.9 mph NNW7.9 kmh NNW 10.1 mph16.3 kmh 30.19 in1022.4 mb 0.00 in0.0 mm 0.00 in0.0 mm 0.00 in0.0 mm
02:23 AM 57.4°F14.1°C 52.5°F11.4°C 84% 5.6 mph NNW9.0 kmh NNW 7.6 mph12.2 kmh 30.19 in1022.4 mb 0.00 in0.0 mm 0.00 in0.0 mm 0.00 in0.0 mm
02:38 AM 57.4°F14.1°C 52.5°F11.4°C 84% 4.7 mph NNW7.6 kmh NNW 10.1 mph16.3 kmh 30.19 in1022.4 mb 0.00 in0.0 mm 0.00 in0.0 mm 0.00 in0.0 mm
02:53 AM 57.2°F14.0°C 52.7°F11.5°C 85% 5.4 mph NNW8.7 kmh NNW 10.1 mph16.3 kmh 30.19 in1022.4 mb 0.00 in0.0 mm 0.00 in0.0 mm 0.00 in0.0 mm
03:08 AM 57.0°F13.9°C 52.5°F11.4°C 85% 6.5 mph N10.5 kmh N 10.1 mph16.3 kmh 30.19 in1022.4 mb 0.00 in0.0 mm 0.00 in0.0 mm 0.00 in0.0 mm
03:24 AM 57.0°F13.9°C 52.2°F11.2°C 84% 5.6 mph NW9.0 kmh NW 12.5 mph20.1 kmh 30.19 in1022.4 mb 0.00 in0.0 mm 0.00 in0.0 mm 0.00 in0.0 mm
03:39 AM 57.6°F14.2°C 52.5°F11.4°C 83% 5.6 mph NNW9.0 kmh NNW 10.1 mph16.3 kmh 30.19 in1022.4 mb 0.00 in0.0 mm 0.00 in0.0 mm 0.00 in0.0 mm
03:54 AM 57.6°F14.2°C 52.5°F11.4°C 83% 6.9 mph NNW11.1 kmh NNW 10.1 mph16.3 kmh 30.19 in1022.4 mb 0.00 in0.0 mm 0.00 in0.0 mm 0.00 in0.0 mm
04:09 AM 57.6°F14.2°C 52.7°F11.5°C 84% 7.2 mph NW11.6 kmh NW 10.1 mph16.3 kmh 30.19 in1022.4 mb 0.00 in0.0 mm 0.00 in0.0 mm 0.00 in0.0 mm
04:24 AM 57.6°F14.2°C 53.1°F11.7°C 85% 7.2 mph NNW11.6 kmh NNW 10.1 mph16.3 kmh 30.19 in1022.4 mb 0.00 in0.0 mm 0.00 in0.0 mm 0.00 in0.0 mm
04:40 AM 57.7°F14.3°C 53.6°F12.0°C 86% 6.0 mph NNW9.7 kmh NNW 10.1 mph16.3 kmh 30.19 in1022.4 mb 0.00 in0.0 mm 0.00 in0.0 mm 0.00 in0.0 mm
04:55 AM 57.6°F14.2°C 53.4°F11.9°C 86% 4.9 mph NNW7.9 kmh NNW 10.1 mph16.3 kmh 30.19 in1022.4 mb 0.00 in0.0 mm 0.00 in0.0 mm 0.00 in0.0 mm
05:10 AM 57.4°F14.1°C 53.2°F11.8°C 86% 4.9 mph NW7.9 kmh NW 10.1 mph16.3 kmh 30.19 in1022.4 mb 0.00 in0.0 mm 0.00 in0.0 mm 0.00 in0.0 mm
05:25 AM 57.4°F14.1°C 52.9°F11.6°C 85% 2.5 mph NW4.0 kmh NW 7.6 mph12.2 kmh 30.19 in1022.4 mb 0.00 in0.0 mm 0.00 in0.0 mm 0.00 in0.0 mm
05:40 AM 57.0°F13.9°C 53.4°F11.9°C 88% 3.8 mph NNW6.1 kmh NNW 7.6 mph12.2 kmh 30.19 in1022.4 mb 0.00 in0.0 mm 0.00 in0.0 mm 0.00 in0.0 mm
05:56 AM 56.5°F13.6°C 52.9°F11.6°C 88% 3.8 mph NNW6.1 kmh NNW 7.6 mph12.2 kmh 30.19 in1022.4 mb 0.00 in0.0 mm 0.00 in0.0 mm 0.00 in0.0 mm
06:11 AM 56.3°F13.5°C 52.2°F11.2°C 86% 4.7 mph NW7.6 kmh NW 10.1 mph16.3 kmh 30.19 in1022.4 mb 0.00 in0.0 mm 0.00 in0.0 mm 0.00 in0.0 mm
06:26 AM 56.3°F13.5°C 52.2°F11.2°C 86% 5.4 mph N8.7 kmh N 10.1 mph16.3 kmh 30.20 in1022.7 mb 0.00 in0.0 mm 0.00 in0.0 mm 0.00 in0.0 mm
06:41 AM 56.1°F13.4°C 52.0°F11.1°C 86% 5.4 mph N8.7 kmh N 10.1 mph16.3 kmh 30.20 in1022.7 mb 0.00 in0.0 mm 0.00 in0.0 mm 0.00 in0.0 mm
06:57 AM 55.9°F13.3°C 51.4°F10.8°C 85% 7.2 mph NNW11.6 kmh NNW 10.1 mph16.3 kmh 30.20 in1022.7 mb 0.00 in0.0 mm 0.00 in0.0 mm 0.00 in0.0 mm
07:12 AM 56.1°F13.4°C 51.4°F10.8°C 84% 4.5 mph N7.2 kmh N 10.1 mph16.3 kmh 30.21 in1023.0 mb 0.00 in0.0 mm 0.00 in0.0 mm 0.00 in0.0 mm
07:27 AM 56.3°F13.5°C 51.8°F11.0°C 85% 5.6 mph N9.0 kmh N 10.1 mph16.3 kmh 30.21 in1023.0 mb 0.00 in0.0 mm 0.00 in0.0 mm 0.00 in0.0 mm
07:42 AM 56.3°F13.5°C 51.8°F11.0°C 85% 5.4 mph NNW8.7 kmh NNW 10.1 mph16.3 kmh 30.22 in1023.4 mb 0.00 in0.0 mm 0.00 in0.0 mm 0.00 in0.0 mm
07:57 AM 56.3°F13.5°C 51.8°F11.0°C 85% 3.1 mph N5.0 kmh N 10.1 mph16.3 kmh 30.22 in1023.4 mb 0.00 in0.0 mm 0.00 in0.0 mm 0.00 in0.0 mm
08:12 AM 56.1°F13.4°C 52.0°F11.1°C 86% 5.4 mph N8.7 kmh N 7.6 mph12.2 kmh 30.22 in1023.4 mb 0.00 in0.0 mm 0.00 in0.0 mm 0.00 in0.0 mm
08:28 AM 56.7°F13.7°C 51.3°F10.7°C 82% 6.9 mph NNW11.1 kmh NNW 10.1 mph16.3 kmh 30.22 in1023.4 mb 0.00 in0.0 mm 0.00 in0.0 mm 0.00 in0.0 mm
08:43 AM 57.4°F14.1°C 51.6°F10.9°C 81% 4.7 mph N7.6 kmh N 7.6 mph12.2 kmh 30.23 in1023.7 mb 0.00 in0.0 mm 0.00 in0.0 mm 0.00 in0.0 mm
08:58 AM 57.6°F14.2°C 51.4°F10.8°C 80% 4.5 mph N7.2 kmh N 7.6 mph12.2 kmh 30.23 in1023.7 mb 0.00 in0.0 mm 0.00 in0.0 mm 0.00 in0.0 mm
09:13 AM 57.9°F14.4°C 52.2°F11.2°C 81% 4.5 mph N7.2 kmh N 10.1 mph16.3 kmh 30.23 in1023.7 mb 0.00 in0.0 mm 0.00 in0.0 mm 0.00 in0.0 mm
09:28 AM 59.0°F15.0°C 53.2°F11.8°C 81% Calm Calm 7.6 mph12.2 kmh 30.24 in1024.0 mb 0.00 in0.0 mm 0.00 in0.0 mm 0.00 in0.0 mm
09:44 AM 60.4°F15.8°C 54.3°F12.4°C 80% Calm Calm 4.9 mph7.9 kmh 30.24 in1024.0 mb 0.00 in0.0 mm 0.00 in0.0 mm 0.00 in0.0 mm
09:59 AM 62.6°F17.0°C 53.8°F12.1°C 73% 3.1 mph SSW5.0 kmh SSW 4.9 mph7.9 kmh 30.25 in1024.4 mb 0.00 in0.0 mm 0.00 in0.0 mm 0.00 in0.0 mm
10:14 AM 64.0°F17.8°C 55.9°F13.3°C 75% 1.8 mph SSW2.9 kmh SSW 7.6 mph12.2 kmh 30.25 in1024.4 mb 0.00 in0.0 mm 0.00 in0.0 mm 0.00 in0.0 mm
10:29 AM 64.8°F18.2°C 55.9°F13.3°C 73% 4.0 mph SE6.4 kmh SE 7.6 mph12.2 kmh 30.25 in1024.4 mb 0.00 in0.0 mm 0.00 in0.0 mm 0.00 in0.0 mm
10:44 AM 65.3°F18.5°C 56.1°F13.4°C 72% 4.5 mph S7.2 kmh S 10.1 mph16.3 kmh 30.26 in1024.7 mb 0.00 in0.0 mm 0.00 in0.0 mm 0.00 in0.0 mm
11:00 AM 65.7°F18.7°C 57.6°F14.2°C 75% 4.5 mph ESE7.2 kmh ESE 7.6 mph12.2 kmh 30.26 in1024.7 mb 0.00 in0.0 mm 0.00 in0.0 mm 0.00 in0.0 mm
11:15 AM 65.7°F18.7°C 57.9°F14.4°C 76% 0.9 mph E1.4 kmh E 12.5 mph20.1 kmh 30.26 in1024.7 mb 0.00 in0.0 mm 0.00 in0.0 mm 0.00 in0.0 mm
11:30 AM 65.1°F18.4°C 58.5°F14.7°C 79% 5.6 mph SW9.0 kmh SW 7.6 mph12.2 kmh 30.27 in1025.1 mb 0.00 in0.0 mm 0.00 in0.0 mm 0.00 in0.0 mm
11:46 AM 64.2°F17.9°C 58.3°F14.6°C 81% 3.8 mph SSW6.1 kmh SSW 10.1 mph16.3 kmh 30.27 in1025.1 mb 0.00 in0.0 mm 0.00 in0.0 mm 0.00 in0.0 mm
12:01 PM 63.5°F17.5°C 57.2°F14.0°C 80% 3.8 mph SE6.1 kmh SE 10.1 mph16.3 kmh 30.27 in1025.1 mb 0.00 in0.0 mm 0.00 in0.0 mm 0.00 in0.0 mm
12:16 PM 62.8°F17.1°C 57.2°F14.0°C 82% 3.4 mph SE5.5 kmh SE 7.6 mph12.2 kmh 30.26 in1024.7 mb 0.00 in0.0 mm 0.00 in0.0 mm 0.00 in0.0 mm
12:31 PM 63.0°F17.2°C 56.7°F13.7°C 80% Calm Calm 10.1 mph16.3 kmh 30.25 in1024.4 mb 0.00 in0.0 mm 0.00 in0.0 mm 0.00 in0.0 mm
12:46 PM 63.5°F17.5°C 57.2°F14.0°C 80% Calm Calm 7.6 mph12.2 kmh 30.25 in1024.4 mb 0.00 in0.0 mm 0.00 in0.0 mm 0.00 in0.0 mm
01:01 PM 63.9°F17.7°C 57.2°F14.0°C 79% 3.8 mph SSW6.1 kmh SSW 7.6 mph12.2 kmh 30.24 in1024.0 mb 0.00 in0.0 mm 0.00 in0.0 mm 0.00 in0.0 mm
01:16 PM 64.6°F18.1°C 56.8°F13.8°C 76% 3.8 mph SE6.1 kmh SE 7.6 mph12.2 kmh 30.24 in1024.0 mb 0.00 in0.0 mm 0.00 in0.0 mm 0.00 in0.0 mm
01:32 PM 65.5°F18.6°C 57.7°F14.3°C 76% 2.9 mph SSW4.7 kmh SSW 10.1 mph16.3 kmh 30.23 in1023.7 mb 0.00 in0.0 mm 0.00 in0.0 mm 0.00 in0.0 mm
01:47 PM 66.0°F18.9°C 58.3°F14.6°C 76% Calm Calm 10.1 mph16.3 kmh 30.23 in1023.7 mb 0.00 in0.0 mm 0.00 in0.0 mm 0.00 in0.0 mm
02:02 PM 65.5°F18.6°C 58.1°F14.5°C 77% 1.6 mph SW2.6 kmh SW 7.6 mph12.2 kmh 30.22 in1023.4 mb 0.00 in0.0 mm 0.00 in0.0 mm 0.00 in0.0 mm
02:17 PM 64.8°F18.2°C 57.4°F14.1°C 77% 2.5 mph S4.0 kmh S 4.9 mph7.9 kmh 30.22 in1023.4 mb 0.00 in0.0 mm 0.00 in0.0 mm 0.00 in0.0 mm
02:32 PM 64.2°F17.9°C 57.6°F14.2°C 79% 3.1 mph S5.0 kmh S 7.6 mph12.2 kmh 30.22 in1023.4 mb 0.00 in0.0 mm 0.00 in0.0 mm 0.00 in0.0 mm
02:48 PM 63.9°F17.7°C 57.2°F14.0°C 79% Calm Calm 4.9 mph7.9 kmh 30.22 in1023.4 mb 0.00 in0.0 mm 0.00 in0.0 mm 0.00 in0.0 mm
03:03 PM 64.0°F17.8°C 57.0°F13.9°C 78% Calm Calm 7.6 mph12.2 kmh 30.22 in1023.4 mb 0.00 in0.0 mm 0.00 in0.0 mm 0.00 in0.0 mm
03:18 PM 64.2°F17.9°C 56.8°F13.8°C 77% 1.6 mph S2.6 kmh S 4.9 mph7.9 kmh 30.22 in1023.4 mb 0.00 in0.0 mm 0.00 in0.0 mm 0.00 in0.0 mm
03:33 PM 64.0°F17.8°C 57.7°F14.3°C 80% 3.4 mph SSE5.5 kmh SSE 7.6 mph12.2 kmh 30.22 in1023.4 mb 0.00 in0.0 mm 0.00 in0.0 mm 0.00 in0.0 mm
03:48 PM 63.9°F17.7°C 57.6°F14.2°C 80% 0.9 mph S1.4 kmh S 4.9 mph7.9 kmh 30.22 in1023.4 mb 0.00 in0.0 mm 0.00 in0.0 mm 0.00 in0.0 mm
04:04 PM 63.7°F17.6°C 57.4°F14.1°C 80% 0.9 mph SSW1.4 kmh SSW 7.6 mph12.2 kmh 30.22 in1023.4 mb 0.00 in0.0 mm 0.00 in0.0 mm 0.00 in0.0 mm
04:19 PM 63.3°F17.4°C 57.0°F13.9°C 80% 1.8 mph E2.9 kmh E 7.6 mph12.2 kmh 30.22 in1023.4 mb 0.00 in0.0 mm 0.00 in0.0 mm 0.00 in0.0 mm
04:34 PM 62.8°F17.1°C 56.1°F13.4°C 79% 0.2 mph S0.3 kmh S 7.6 mph12.2 kmh 30.22 in1023.4 mb 0.00 in0.0 mm 0.00 in0.0 mm 0.00 in0.0 mm
04:49 PM 62.6°F17.0°C 56.3°F13.5°C 80% 1.3 mph S2.1 kmh S 4.9 mph7.9 kmh 30.22 in1023.4 mb 0.00 in0.0 mm 0.00 in0.0 mm 0.00 in0.0 mm
05:04 PM 62.4°F16.9°C 56.5°F13.6°C 81% 2.5 mph SSE4.0 kmh SSE 7.6 mph12.2 kmh 30.23 in1023.7 mb 0.00 in0.0 mm 0.00 in0.0 mm 0.00 in0.0 mm
05:20 PM 62.1°F16.7°C 56.8°F13.8°C 83% 1.6 mph SE2.6 kmh SE 4.9 mph7.9 kmh 30.22 in1023.4 mb 0.00 in0.0 mm 0.00 in0.0 mm 0.00 in0.0 mm
05:35 PM 61.7°F16.5°C 57.2°F14.0°C 85% 1.6 mph SE2.6 kmh SE 4.9 mph7.9 kmh 30.23 in1023.7 mb 0.00 in0.0 mm 0.00 in0.0 mm 0.00 in0.0 mm
05:50 PM 61.5°F16.4°C 57.6°F14.2°C 87% Calm Calm 4.9 mph7.9 kmh 30.23 in1023.7 mb 0.00 in0.0 mm 0.00 in0.0 mm 0.00 in0.0 mm
06:05 PM 61.0°F16.1°C 57.4°F14.1°C 88% Calm Calm 2.5 mph4.0 kmh 30.23 in1023.7 mb 0.00 in0.0 mm 0.00 in0.0 mm 0.00 in0.0 mm
06:20 PM 60.4°F15.8°C 57.2°F14.0°C 89% 3.1 mph NNW5.0 kmh NNW 4.9 mph7.9 kmh 30.23 in1023.7 mb 0.00 in0.0 mm 0.00 in0.0 mm 0.00 in0.0 mm
06:36 PM 59.7°F15.4°C 56.5°F13.6°C 89% 1.8 mph NW2.9 kmh NW 4.9 mph7.9 kmh 30.23 in1023.7 mb 0.00 in0.0 mm 0.00 in0.0 mm 0.00 in0.0 mm
06:51 PM 59.2°F15.1°C 55.9°F13.3°C 89% 4.5 mph NW7.2 kmh NW 7.6 mph12.2 kmh 30.23 in1023.7 mb 0.00 in0.0 mm 0.00 in0.0 mm 0.00 in0.0 mm
07:06 PM 58.8°F14.9°C 55.6°F13.1°C 89% 3.1 mph NNW5.0 kmh NNW 7.6 mph12.2 kmh 30.23 in1023.7 mb 0.00 in0.0 mm 0.00 in0.0 mm 0.00 in0.0 mm
07:21 PM 58.3°F14.6°C 55.0°F12.8°C 89% 3.1 mph NNW5.0 kmh NNW 7.6 mph12.2 kmh 30.24 in1024.0 mb 0.00 in0.0 mm 0.00 in0.0 mm 0.00 in0.0 mm
07:36 PM 58.1°F14.5°C 54.5°F12.5°C 88% 5.4 mph NNW8.7 kmh NNW 10.1 mph16.3 kmh 30.24 in1024.0 mb 0.00 in0.0 mm 0.00 in0.0 mm 0.00 in0.0 mm
07:52 PM 58.1°F14.5°C 54.3°F12.4°C 87% 4.7 mph N7.6 kmh N 10.1 mph16.3 kmh 30.24 in1024.0 mb 0.00 in0.0 mm 0.00 in0.0 mm 0.00 in0.0 mm
08:07 PM 57.9°F14.4°C 54.1°F12.3°C 87% 4.7 mph NW7.6 kmh NW 7.6 mph12.2 kmh 30.24 in1024.0 mb 0.00 in0.0 mm 0.00 in0.0 mm 0.00 in0.0 mm
08:22 PM 57.9°F14.4°C 54.1°F12.3°C 87% 6.0 mph N9.7 kmh N 10.1 mph16.3 kmh 30.24 in1024.0 mb 0.00 in0.0 mm 0.00 in0.0 mm 0.00 in0.0 mm
08:37 PM 58.1°F14.5°C 54.0°F12.2°C 86% 4.9 mph NNW7.9 kmh NNW 10.1 mph16.3 kmh 30.25 in1024.4 mb 0.00 in0.0 mm 0.00 in0.0 mm 0.00 in0.0 mm
08:52 PM 58.3°F14.6°C 53.8°F12.1°C 85% 7.2 mph NNW11.6 kmh NNW 10.1 mph16.3 kmh 30.25 in1024.4 mb 0.00 in0.0 mm 0.00 in0.0 mm 0.00 in0.0 mm
09:08 PM 57.9°F14.4°C 54.1°F12.3°C 87% 6.0 mph NNW9.7 kmh NNW 7.6 mph12.2 kmh 30.25 in1024.4 mb 0.00 in0.0 mm 0.00 in0.0 mm 0.00 in0.0 mm
09:23 PM 57.7°F14.3°C 54.0°F12.2°C 87% 4.7 mph N7.6 kmh N 10.1 mph16.3 kmh 30.26 in1024.7 mb 0.00 in0.0 mm 0.00 in0.0 mm 0.00 in0.0 mm
09:38 PM 57.9°F14.4°C 54.1°F12.3°C 87% 6.3 mph NNW10.1 kmh NNW 10.1 mph16.3 kmh 30.26 in1024.7 mb 0.00 in0.0 mm 0.00 in0.0 mm 0.00 in0.0 mm
09:53 PM 58.1°F14.5°C 54.0°F12.2°C 86% 4.7 mph NW7.6 kmh NW 7.6 mph12.2 kmh 30.26 in1024.7 mb 0.00 in0.0 mm 0.00 in0.0 mm 0.00 in0.0 mm
10:08 PM 58.1°F14.5°C 54.0°F12.2°C 86% 4.5 mph NNW7.2 kmh NNW 7.6 mph12.2 kmh 30.26 in1024.7 mb 0.00 in0.0 mm 0.00 in0.0 mm 0.00 in0.0 mm
10:24 PM 58.1°F14.5°C 54.0°F12.2°C 86% 6.9 mph N11.1 kmh N 10.1 mph16.3 kmh 30.25 in1024.4 mb 0.00 in0.0 mm 0.00 in0.0 mm 0.00 in0.0 mm
10:39 PM 57.9°F14.4°C 54.1°F12.3°C 87% 4.5 mph N7.2 kmh N 10.1 mph16.3 kmh 30.25 in1024.4 mb 0.00 in0.0 mm 0.00 in0.0 mm 0.00 in0.0 mm
10:54 PM 57.9°F14.4°C 54.1°F12.3°C 87% 4.0 mph N6.4 kmh N 10.1 mph16.3 kmh 30.25 in1024.4 mb 0.00 in0.0 mm 0.00 in0.0 mm 0.00 in0.0 mm
11:09 PM 58.1°F14.5°C 54.0°F12.2°C 86% 5.6 mph NNW9.0 kmh NNW 7.6 mph12.2 kmh 30.26 in1024.7 mb 0.00 in0.0 mm 0.00 in0.0 mm 0.00 in0.0 mm
11:24 PM 58.5°F14.7°C 54.0°F12.2°C 85% 4.0 mph NNW6.4 kmh NNW 10.1 mph16.3 kmh 30.25 in1024.4 mb 0.00 in0.0 mm 0.00 in0.0 mm 0.00 in0.0 mm
11:40 PM 58.6°F14.8°C 54.1°F12.3°C 85% 4.7 mph NNW7.6 kmh NNW 7.6 mph12.2 kmh 30.25 in1024.4 mb 0.00 in0.0 mm 0.00 in0.0 mm 0.00 in0.0 mm
11:55 PM 58.8°F14.9°C 54.0°F12.2°C 84% 4.5 mph NW7.2 kmh NW 7.6 mph12.2 kmh 30.25 in1024.4 mb 0.00 in0.0 mm 0.00 in0.0 mm 0.00 in0.0 mm